createdAt,value
2018-04-27T00:01:53.093Z,4.67
2018-04-27T00:04:25.203Z,4.70
2018-04-27T00:06:57.488Z,4.60
2018-04-27T00:09:29.945Z,4.90
2018-04-27T00:12:02.355Z,4.80
2018-04-27T00:14:35.371Z,4.60
2018-04-27T00:17:08.379Z,4.80
2018-04-27T00:19:41.287Z,4.60
2018-04-27T00:22:13.520Z,4.57
2018-04-27T00:24:45.891Z,4.70
2018-04-27T00:27:18.981Z,4.83
2018-04-27T00:29:51.953Z,4.83
2018-04-27T00:32:25.147Z,4.80
2018-04-27T00:34:57.995Z,5.13
2018-04-27T00:37:30.155Z,4.70
2018-04-27T00:40:02.549Z,5.00
2018-04-27T00:42:34.826Z,4.70
2018-04-27T00:45:07.150Z,4.60
2018-04-27T00:47:39.490Z,4.60
2018-04-27T00:50:11.751Z,4.50
2018-04-27T00:52:57.439Z,4.50
2018-04-27T00:55:30.264Z,4.50
2018-04-27T00:58:02.451Z,4.63
2018-04-27T01:00:34.541Z,4.40
2018-04-27T01:03:06.838Z,4.60
2018-04-27T01:05:39.081Z,5.10
2018-04-27T01:08:11.083Z,4.97
2018-04-27T01:10:44.936Z,4.97
2018-04-27T01:13:17.274Z,5.80
2018-04-27T01:15:49.408Z,5.10
2018-04-27T01:18:21.750Z,4.70
2018-04-27T01:20:54.205Z,5.03
2018-04-27T01:23:26.450Z,5.40
2018-04-27T01:25:59.300Z,4.73
2018-04-27T01:28:31.586Z,5.03
2018-04-27T01:31:04.448Z,5.10
2018-04-27T01:33:36.914Z,5.23
2018-04-27T01:36:09.232Z,5.83
2018-04-27T01:38:41.612Z,5.40
2018-04-27T01:41:13.841Z,5.57
2018-04-27T01:43:46.156Z,5.50
2018-04-27T01:46:18.621Z,5.40
2018-04-27T01:48:50.758Z,5.43
2018-04-27T01:51:22.888Z,5.33
2018-04-27T01:53:54.993Z,5.10
2018-04-27T01:56:28.029Z,5.50
2018-04-27T01:59:00.249Z,5.67
2018-04-27T02:01:32.640Z,5.90
2018-04-27T02:04:04.740Z,6.73
2018-04-27T02:06:37.897Z,6.77
2018-04-27T02:09:10.965Z,5.77
2018-04-27T02:11:43.066Z,6.33
2018-04-27T02:14:15.163Z,5.97
2018-04-27T02:16:47.359Z,6.50
2018-04-27T02:19:20.558Z,6.43
2018-04-27T02:21:52.710Z,6.30
2018-04-27T02:24:24.910Z,6.07
2018-04-27T02:26:57.761Z,6.53
2018-04-27T02:29:30.172Z,6.67
2018-04-27T02:32:03.974Z,6.57
2018-04-27T02:34:36.424Z,6.80
2018-04-27T02:37:08.678Z,6.77
2018-04-27T02:39:40.824Z,6.60
2018-04-27T02:42:12.982Z,6.70
2018-04-27T02:44:45.354Z,7.00
2018-04-27T02:47:17.485Z,6.47
2018-04-27T02:49:49.630Z,6.70
2018-04-27T02:52:28.181Z,6.70
2018-04-27T02:55:06.046Z,6.27
2018-04-27T02:57:44.392Z,6.50
2018-04-27T03:00:17.292Z,6.60
2018-04-27T03:02:50.409Z,6.37
2018-04-27T03:05:22.838Z,6.63
2018-04-27T03:07:55.820Z,6.07
2018-04-27T03:10:28.776Z,5.80
2018-04-27T03:13:00.891Z,6.20
2018-04-27T03:15:33.140Z,6.50
2018-04-27T03:18:06.261Z,6.70
2018-04-27T03:20:38.632Z,6.00
2018-04-27T03:23:10.849Z,6.87
2018-04-27T03:25:43.042Z,6.17
2018-04-27T03:28:15.441Z,5.83
2018-04-27T03:30:47.816Z,5.70
2018-04-27T03:33:20.019Z,5.33
2018-04-27T03:35:52.330Z,5.93
2018-04-27T03:38:24.562Z,5.40
2018-04-27T03:40:56.697Z,6.23
2018-04-27T03:43:29.146Z,5.60
2018-04-27T03:46:02.129Z,5.90
2018-04-27T03:48:35.500Z,5.93
2018-04-27T03:51:13.263Z,6.20
2018-04-27T03:53:50.799Z,6.53
2018-04-27T03:56:27.964Z,5.63
2018-04-27T03:59:08.487Z,5.70
2018-04-27T04:01:53.167Z,5.80
2018-04-27T04:04:45.047Z,6.43
2018-04-27T04:07:17.217Z,6.00
2018-04-27T04:09:50.235Z,6.00
2018-04-27T04:12:22.364Z,5.73
2018-04-27T04:14:54.681Z,5.83
2018-04-27T04:17:26.759Z,5.83
2018-04-27T04:19:58.815Z,6.17
2018-04-27T04:22:32.055Z,6.40
2018-04-27T04:25:04.131Z,5.93
2018-04-27T04:27:36.514Z,6.00
2018-04-27T04:30:09.619Z,6.57
2018-04-27T04:32:41.791Z,6.23
2018-04-27T04:35:14.170Z,5.97
2018-04-27T04:37:46.617Z,6.20
2018-04-27T04:40:19.755Z,5.73
2018-04-27T04:42:53.114Z,6.07
2018-04-27T04:45:26.312Z,6.70
2018-04-27T04:47:58.572Z,6.13
2018-04-27T04:50:31.563Z,6.67
2018-04-27T04:53:04.500Z,7.00
2018-04-27T04:55:36.952Z,6.87
2018-04-27T04:58:09.340Z,7.03
2018-04-27T05:00:41.543Z,6.93
2018-04-27T05:03:14.630Z,6.33
2018-04-27T05:05:46.802Z,6.30
2018-04-27T05:08:19.155Z,7.10
2018-04-27T05:10:51.338Z,6.47
2018-04-27T05:13:23.751Z,6.67
2018-04-27T05:15:55.937Z,6.73
2018-04-27T05:21:50.151Z,6.67
2018-04-27T05:24:22.776Z,6.70
2018-04-27T05:26:54.982Z,6.43
2018-04-27T05:29:27.170Z,6.90
2018-04-27T05:31:59.367Z,7.10
2018-04-27T05:34:31.505Z,6.93
2018-04-27T05:37:03.876Z,7.23
2018-04-27T05:39:36.157Z,6.70
2018-04-27T05:42:08.508Z,6.83
2018-04-27T05:44:40.828Z,7.20
2018-04-27T05:47:13.886Z,6.77
2018-04-27T05:49:46.053Z,6.33
2018-04-27T05:52:18.229Z,7.73
2018-04-27T05:54:50.399Z,6.53
2018-04-27T05:57:22.771Z,7.20
2018-04-27T05:59:55.103Z,7.53
2018-04-27T06:02:27.284Z,7.00
2018-04-27T06:04:59.948Z,6.83
2018-04-27T06:07:32.209Z,6.90
2018-04-27T06:10:04.590Z,7.17
2018-04-27T06:12:36.815Z,6.47
2018-04-27T06:15:09.015Z,6.60
2018-04-27T06:17:41.242Z,7.03
2018-04-27T06:20:13.679Z,6.53
2018-04-27T06:22:46.063Z,7.30
2018-04-27T06:25:19.076Z,6.27
2018-04-27T06:27:51.331Z,5.87
2018-04-27T06:30:23.629Z,6.87
2018-04-27T06:32:55.727Z,6.40
2018-04-27T06:35:28.589Z,6.20
2018-04-27T06:38:01.698Z,6.10
2018-04-27T06:40:34.424Z,6.47
2018-04-27T06:43:06.924Z,6.17
2018-04-27T06:45:39.311Z,7.10
2018-04-27T06:48:12.894Z,6.60
2018-04-27T06:50:45.219Z,6.10
2018-04-27T06:53:17.372Z,6.37
2018-04-27T06:55:50.729Z,6.70
2018-04-27T06:58:22.985Z,6.57
2018-04-27T07:00:55.328Z,6.03
2018-04-27T07:03:28.405Z,6.80
2018-04-27T07:06:00.930Z,6.37
2018-04-27T07:08:33.387Z,6.30
2018-04-27T07:11:05.583Z,5.70
2018-04-27T07:13:37.905Z,6.30
2018-04-27T07:16:10.010Z,6.40
2018-04-27T07:18:42.073Z,6.03
2018-04-27T07:21:14.407Z,6.60
2018-04-27T07:23:46.785Z,6.40
2018-04-27T07:26:19.073Z,6.10
2018-04-27T07:28:51.243Z,6.40
2018-04-27T07:31:24.277Z,6.43
2018-04-27T07:33:57.310Z,6.37
2018-04-27T07:36:29.673Z,6.50
2018-04-27T07:39:02.094Z,6.50
2018-04-27T07:41:34.261Z,6.60
2018-04-27T07:44:06.544Z,6.70
2018-04-27T07:46:39.523Z,6.53
2018-04-27T07:49:12.604Z,5.80
2018-04-27T07:51:44.921Z,5.80
2018-04-27T07:54:17.195Z,6.30
2018-04-27T07:56:49.516Z,5.50
2018-04-27T07:59:21.810Z,5.63
2018-04-27T08:01:53.948Z,5.30
2018-04-27T08:04:26.850Z,5.70
2018-04-27T08:06:59.839Z,5.80
2018-04-27T08:09:32.865Z,5.43
2018-04-27T08:12:04.989Z,5.07
2018-04-27T08:14:37.076Z,5.27
2018-04-27T08:17:09.498Z,5.50
2018-04-27T08:19:41.843Z,5.40
2018-04-27T08:22:14.105Z,5.57
2018-04-27T08:24:46.441Z,5.20
2018-04-27T08:27:18.856Z,4.37
2018-04-27T08:29:51.110Z,4.90
2018-04-27T08:32:23.473Z,5.03
2018-04-27T08:34:55.847Z,4.70
2018-04-27T08:37:36.178Z,3.97
2018-04-27T08:40:08.592Z,4.10
2018-04-27T08:42:41.539Z,4.30
2018-04-27T08:45:13.701Z,4.77
2018-04-27T08:47:45.778Z,4.40
2018-04-27T08:50:18.786Z,5.13
2018-04-27T08:52:51.712Z,4.60
2018-04-27T08:55:24.049Z,4.60
2018-04-27T08:57:57.308Z,4.77
2018-04-27T09:00:29.484Z,4.47
2018-04-27T09:03:01.852Z,4.23
2018-04-27T09:05:34.127Z,4.63
2018-04-27T09:08:06.994Z,5.40
2018-04-27T09:10:39.185Z,4.43
2018-04-27T09:13:12.303Z,4.70
2018-04-27T09:15:44.632Z,3.97
2018-04-27T09:18:17.041Z,4.83
2018-04-27T09:20:49.151Z,4.73
2018-04-27T09:23:21.326Z,4.43
2018-04-27T09:25:53.373Z,4.00
2018-04-27T09:28:25.482Z,3.87
2018-04-27T09:30:57.761Z,4.03
2018-04-27T09:33:30.651Z,4.23
2018-04-27T09:36:03.568Z,4.83
2018-04-27T09:38:36.123Z,4.27
2018-04-27T09:41:09.470Z,4.10
2018-04-27T09:43:42.308Z,4.13
2018-04-27T09:46:15.026Z,4.20
2018-04-27T09:48:47.314Z,4.27
2018-04-27T09:51:19.674Z,4.53
2018-04-27T09:53:52.019Z,3.97
2018-04-27T09:56:25.119Z,4.17
2018-04-27T09:58:58.302Z,4.43
2018-04-27T10:01:30.576Z,4.03
2018-04-27T10:04:02.869Z,4.53
2018-04-27T10:06:35.198Z,4.47
2018-04-27T10:09:08.222Z,4.60
2018-04-27T10:11:40.392Z,4.20
2018-04-27T10:14:12.574Z,4.13
2018-04-27T10:16:44.709Z,3.77
2018-04-27T10:19:16.814Z,3.73
2018-04-27T10:21:48.958Z,4.03
2018-04-27T10:24:21.133Z,4.63
2018-04-27T10:26:53.199Z,4.50
2018-04-27T10:29:25.381Z,4.87
2018-04-27T10:31:58.378Z,4.37
2018-04-27T10:34:30.514Z,4.43
2018-04-27T10:37:02.608Z,4.27
2018-04-27T10:39:34.692Z,4.90
2018-04-27T10:42:06.850Z,4.60
2018-04-27T10:44:39.737Z,4.43
2018-04-27T10:47:12.801Z,4.03
2018-04-27T10:49:44.981Z,4.63
2018-04-27T10:52:17.184Z,4.30
2018-04-27T10:54:49.371Z,4.27
2018-04-27T10:57:21.726Z,4.13
2018-04-27T10:59:53.886Z,4.00
2018-04-27T11:02:26.261Z,4.20
2018-04-27T11:04:58.387Z,3.60
2018-04-27T11:07:31.518Z,4.10
2018-04-27T11:10:03.636Z,3.87
2018-04-27T11:12:36.106Z,3.10
2018-04-27T11:15:08.336Z,3.70
2018-04-27T11:17:40.686Z,3.87
2018-04-27T11:20:13.825Z,3.33
2018-04-27T11:22:46.162Z,3.47
2018-04-27T11:25:18.642Z,3.13
2018-04-27T11:27:51.004Z,3.90
2018-04-27T11:30:24.110Z,3.97
2018-04-27T11:32:56.209Z,3.70
2018-04-27T11:35:28.298Z,3.63
2018-04-27T11:38:00.675Z,3.97
2018-04-27T11:40:32.935Z,3.50
2018-04-27T11:43:05.030Z,3.40
2018-04-27T11:45:37.896Z,3.57
2018-04-27T11:48:11.030Z,3.27
2018-04-27T11:50:43.184Z,3.20
2018-04-27T11:53:16.132Z,3.77
2018-04-27T11:55:48.201Z,3.13
2018-04-27T11:58:20.673Z,3.47
2018-04-27T12:00:53.364Z,3.10
2018-04-27T12:03:25.774Z,2.90
2018-04-27T12:05:57.982Z,3.40
2018-04-27T12:08:30.154Z,3.43
2018-04-27T12:11:02.273Z,3.17
2018-04-27T12:13:34.747Z,2.83
2018-04-27T12:16:07.211Z,3.20
2018-04-27T12:18:39.672Z,3.20
2018-04-27T12:21:12.666Z,2.70
2018-04-27T12:23:45.113Z,2.90
2018-04-27T12:26:18.998Z,3.20
2018-04-27T12:28:51.387Z,2.67
2018-04-27T12:31:24.238Z,2.90
2018-04-27T12:33:57.239Z,2.70
2018-04-27T12:36:31.735Z,2.80
2018-04-27T12:39:05.353Z,2.93
2018-04-27T12:41:37.741Z,3.17
2018-04-27T12:44:09.976Z,2.50
2018-04-27T12:46:42.234Z,3.03
2018-04-27T12:49:14.463Z,2.70
2018-04-27T12:51:46.898Z,2.63
2018-04-27T12:54:19.217Z,3.20
2018-04-27T12:56:52.286Z,3.10
2018-04-27T12:59:24.875Z,3.37
2018-04-27T13:01:57.986Z,3.30
2018-04-27T13:04:30.986Z,3.00
2018-04-27T13:07:04.540Z,3.33
2018-04-27T13:09:37.542Z,2.97
2018-04-27T13:12:10.647Z,2.93
2018-04-27T13:14:43.603Z,3.00
2018-04-27T13:17:15.914Z,3.20
2018-04-27T13:19:49.105Z,2.80
2018-04-27T13:22:21.248Z,3.20
2018-04-27T13:24:53.332Z,2.90
2018-04-27T13:27:26.417Z,2.63
2018-04-27T13:29:58.677Z,2.80
2018-04-27T13:32:30.841Z,2.70
2018-04-27T13:35:03.245Z,2.80
2018-04-27T13:37:36.178Z,2.90
2018-04-27T13:40:08.328Z,3.27
2018-04-27T13:42:40.435Z,2.90
2018-04-27T13:45:15.083Z,3.03
2018-04-27T13:47:47.338Z,2.53
2018-04-27T13:50:19.738Z,2.90
2018-04-27T13:52:52.627Z,2.67
2018-04-27T13:55:25.732Z,2.57
2018-04-27T13:57:58.059Z,2.40
2018-04-27T14:00:30.229Z,2.70
2018-04-27T14:03:02.712Z,2.73
2018-04-27T14:05:35.752Z,2.60
2018-04-27T14:08:08.083Z,2.63
2018-04-27T14:10:40.927Z,2.40
2018-04-27T14:13:13.333Z,3.00
2018-04-27T14:15:45.817Z,4.40
2018-04-27T14:18:18.765Z,3.43
2018-04-27T14:20:51.537Z,2.40
2018-04-27T14:23:24.014Z,2.53
2018-04-27T14:25:56.222Z,7.40
2018-04-27T14:28:29.313Z,2.40
2018-04-27T14:31:02.391Z,5.20
2018-04-27T14:33:34.543Z,2.50
2018-04-27T14:36:06.963Z,2.37
2018-04-27T14:38:39.318Z,2.20
2018-04-27T14:41:11.786Z,2.57
2018-04-27T14:43:44.419Z,2.50
2018-04-27T14:46:16.834Z,2.43
2018-04-27T14:48:48.964Z,2.50
2018-04-27T14:51:21.334Z,2.17
2018-04-27T14:53:53.659Z,2.00
2018-04-27T14:56:26.700Z,1.93
2018-04-27T14:58:59.128Z,1.97
2018-04-27T15:01:32.969Z,2.00
2018-04-27T15:04:05.186Z,2.00
2018-04-27T15:06:37.278Z,2.53
2018-04-27T15:09:09.566Z,3.23
2018-04-27T15:11:41.755Z,4.43
2018-04-27T15:14:14.081Z,2.03
2018-04-27T15:16:46.472Z,2.30
2018-04-27T15:19:18.677Z,1.90
2018-04-27T15:21:51.086Z,2.10
2018-04-27T15:24:25.125Z,2.53
2018-04-27T15:26:58.355Z,2.63
2018-04-27T15:29:31.427Z,2.40
2018-04-27T15:32:03.704Z,2.30
2018-04-27T15:34:35.858Z,2.57
2018-04-27T15:37:08.029Z,2.30
2018-04-27T15:39:40.209Z,2.30
2018-04-27T15:42:12.376Z,1.97
2018-04-27T15:44:44.793Z,1.70
2018-04-27T15:47:17.222Z,1.83
2018-04-27T15:49:49.407Z,1.80
2018-04-27T15:52:21.838Z,1.43
2018-04-27T15:54:53.936Z,1.60
2018-04-27T15:57:26.309Z,1.60
2018-04-27T15:59:58.383Z,1.50
2018-04-27T16:02:30.547Z,1.77
2018-04-27T16:05:03.007Z,1.73
2018-04-27T16:07:35.369Z,1.50
2018-04-27T16:10:07.542Z,2.03
2018-04-27T16:12:39.863Z,1.43
2018-04-27T16:15:12.729Z,1.83
2018-04-27T16:17:45.832Z,1.73
2018-04-27T16:20:18.213Z,1.83
2018-04-27T16:22:51.206Z,2.10
2018-04-27T16:25:24.262Z,2.00
2018-04-27T16:27:56.612Z,2.23
2018-04-27T16:30:29.767Z,1.90
2018-04-27T16:33:02.145Z,2.03
2018-04-27T16:35:35.428Z,1.93
2018-04-27T16:38:08.333Z,2.13
2018-04-27T16:40:40.701Z,2.40
2018-04-27T16:43:13.207Z,1.80
2018-04-27T16:45:45.295Z,2.20
2018-04-27T16:48:17.719Z,2.40
2018-04-27T16:50:50.082Z,2.00
2018-04-27T16:53:23.309Z,1.23
2018-04-27T16:55:55.406Z,1.20
2018-04-27T16:58:27.817Z,1.33
2018-04-27T17:01:00.331Z,1.30
2018-04-27T17:03:32.585Z,1.30
2018-04-27T17:06:04.731Z,1.23
2018-04-27T17:08:37.229Z,1.20
2018-04-27T17:11:10.115Z,1.10
2018-04-27T17:13:42.522Z,1.00
2018-04-27T17:16:15.623Z,1.20
2018-04-27T17:18:48.569Z,1.33
2018-04-27T17:21:21.016Z,1.37
2018-04-27T17:23:53.538Z,1.20
2018-04-27T17:26:25.781Z,1.20
2018-04-27T17:28:58.689Z,1.27
2018-04-27T17:31:30.842Z,1.43
2018-04-27T17:34:03.228Z,1.53
2018-04-27T17:36:35.319Z,1.50
2018-04-27T17:39:07.421Z,1.50
2018-04-27T17:41:40.532Z,1.47
2018-04-27T17:44:12.706Z,1.27
2018-04-27T17:46:44.854Z,1.40
2018-04-27T17:49:17.180Z,1.50
2018-04-27T17:51:49.240Z,1.30
2018-04-27T17:54:21.631Z,1.30
2018-04-27T17:56:54.607Z,1.20
2018-04-27T17:59:27.895Z,1.13
2018-04-27T18:02:00.093Z,1.20
2018-04-27T18:04:32.090Z,1.20
2018-04-27T18:07:05.921Z,1.23
2018-04-27T18:09:38.330Z,0.97
2018-04-27T18:12:11.573Z,0.90
2018-04-27T18:14:43.822Z,1.10
2018-04-27T18:17:16.155Z,1.13
2018-04-27T18:19:48.973Z,1.03
2018-04-27T18:22:21.037Z,1.20
2018-04-27T18:24:53.492Z,1.30
2018-04-27T18:27:25.888Z,1.00
2018-04-27T18:29:59.181Z,1.13
2018-04-27T18:32:31.456Z,0.90
2018-04-27T18:35:04.035Z,1.00
2018-04-27T18:37:36.348Z,1.00
2018-04-27T18:40:08.392Z,1.03
2018-04-27T18:42:41.417Z,1.43
2018-04-27T18:45:14.894Z,1.20
2018-04-27T18:47:47.228Z,1.20
2018-04-27T18:50:19.697Z,1.00
2018-04-27T18:52:52.017Z,1.60
2018-04-27T18:55:24.374Z,1.60
2018-04-27T18:57:56.773Z,1.33
2018-04-27T19:00:29.677Z,1.50
2018-04-27T19:03:01.983Z,1.43
2018-04-27T19:05:35.104Z,1.87
2018-04-27T19:08:08.143Z,1.77
2018-04-27T19:10:41.389Z,1.57
2018-04-27T19:13:14.937Z,1.80
2018-04-27T19:15:47.390Z,2.10
2018-04-27T19:18:24.614Z,2.13
2018-04-27T19:20:57.061Z,2.23
2018-04-27T19:23:31.209Z,1.90
2018-04-27T19:26:03.884Z,1.77
2018-04-27T19:28:38.353Z,2.07
2018-04-27T19:31:10.645Z,2.43
2018-04-27T19:33:43.039Z,2.27
2018-04-27T19:36:15.233Z,2.23
2018-04-27T19:38:47.708Z,2.57
2018-04-27T19:41:19.985Z,1.97
2018-04-27T19:43:52.285Z,2.30
2018-04-27T19:46:25.265Z,2.50
2018-04-27T19:48:57.444Z,2.57
2018-04-27T19:51:30.345Z,2.30
2018-04-27T19:54:02.734Z,2.43
2018-04-27T19:56:34.980Z,2.70
2018-04-27T19:59:07.864Z,2.70
2018-04-27T20:01:41.003Z,2.70
2018-04-27T20:04:13.305Z,2.90
2018-04-27T20:06:46.460Z,2.67
2018-04-27T20:09:20.598Z,2.70
2018-04-27T20:11:53.104Z,2.83
2018-04-27T20:14:32.561Z,2.93
2018-04-27T20:17:06.701Z,2.40
2018-04-27T20:19:40.037Z,3.20
2018-04-27T20:22:21.138Z,2.93
2018-04-27T20:24:53.504Z,3.90
2018-04-27T20:27:25.924Z,3.70
2018-04-27T20:29:59.235Z,7.07
2018-04-27T20:32:32.481Z,4.50
2018-04-27T20:35:04.805Z,3.90
2018-04-27T20:37:38.992Z,3.90
2018-04-27T20:40:11.307Z,3.90
2018-04-27T20:42:43.580Z,3.53
2018-04-27T20:45:17.454Z,2.97
2018-04-27T20:47:49.874Z,3.10
2018-04-27T20:50:22.220Z,3.33
2018-04-27T20:52:54.631Z,2.93
2018-04-27T20:55:26.929Z,3.60
2018-04-27T20:57:59.226Z,3.63
2018-04-27T21:00:32.491Z,3.47
2018-04-27T21:03:04.842Z,3.70
2018-04-27T21:05:37.202Z,4.00
2018-04-27T21:08:09.490Z,4.70
2018-04-27T21:10:41.850Z,4.40
2018-04-27T21:13:14.110Z,4.20
2018-04-27T21:15:47.305Z,4.33
2018-04-27T21:18:22.195Z,4.07
2018-04-27T21:20:54.360Z,3.87
2018-04-27T21:23:26.595Z,4.23
2018-04-27T21:25:58.927Z,3.80
2018-04-27T21:28:39.510Z,4.20
2018-04-27T21:31:11.876Z,3.87
2018-04-27T21:33:44.109Z,4.30
2018-04-27T21:36:16.444Z,4.57
2018-04-27T21:38:51.704Z,4.43
2018-04-27T21:41:26.753Z,4.80
2018-04-27T21:44:05.232Z,4.10
2018-04-27T21:46:37.512Z,4.77
2018-04-27T21:49:16.736Z,4.07
2018-04-27T21:51:49.088Z,4.60
2018-04-27T21:54:24.931Z,4.50
2018-04-27T21:56:59.856Z,4.40
2018-04-27T21:59:54.062Z,4.00
2018-04-27T22:06:12.677Z,4.40
2018-04-27T22:08:51.535Z,4.10
2018-04-27T22:11:31.768Z,4.20
2018-04-27T22:14:03.919Z,4.20
2018-04-27T22:16:41.074Z,4.37
2018-04-27T22:19:13.381Z,4.63
2018-04-27T22:21:46.476Z,4.03
2018-04-27T22:24:20.603Z,4.20
2018-04-27T22:26:53.016Z,4.40
2018-04-27T22:29:30.838Z,4.70
2018-04-27T22:32:03.347Z,4.37
2018-04-27T22:34:37.323Z,4.47
2018-04-27T22:37:09.777Z,4.03
2018-04-27T22:39:50.927Z,4.70
2018-04-27T22:42:26.155Z,5.23
2018-04-27T22:45:01.277Z,4.70
2018-04-27T22:47:37.670Z,5.13
2018-04-27T22:50:09.996Z,5.27
2018-04-27T22:52:42.351Z,5.67
2018-04-27T22:55:14.726Z,5.67
2018-04-27T22:58:00.794Z,5.60
2018-04-27T23:00:35.722Z,6.00
2018-04-27T23:03:08.705Z,6.20
2018-04-27T23:05:41.897Z,6.63
2018-04-27T23:08:14.866Z,6.57
2018-04-27T23:10:56.789Z,6.33
2018-04-27T23:13:34.759Z,6.20
2018-04-27T23:16:07.143Z,6.30
2018-04-27T23:18:39.292Z,6.17
2018-04-27T23:21:11.652Z,5.97
2018-04-27T23:23:43.838Z,6.07
2018-04-27T23:26:16.136Z,5.83
2018-04-27T23:28:49.609Z,5.97
2018-04-27T23:31:21.966Z,6.33
2018-04-27T23:33:54.301Z,6.73
2018-04-27T23:36:27.444Z,6.77
2018-04-27T23:38:59.860Z,6.50
2018-04-27T23:41:33.070Z,6.70
2018-04-27T23:44:05.336Z,6.73
2018-04-27T23:46:37.665Z,6.73
2018-04-27T23:49:10.086Z,6.37
2018-04-27T23:51:42.366Z,6.57
2018-04-27T23:54:14.562Z,7.00
2018-04-27T23:56:48.600Z,8.00
2018-04-27T23:59:20.927Z,7.30
